sensor_id;sensor_type;location;lat;lon;timestamp;P1;P2;P0
73233;PMS5003;62293;-26.174;27.908;2022-07-23T00:00:44;17;17;
73233;PMS5003;62293;-26.174;27.908;2022-07-23T00:03:09;16;15;
73233;PMS5003;62293;-26.174;27.908;2022-07-23T00:05:34;14;14;
73233;PMS5003;62293;-26.174;27.908;2022-07-23T00:08:00;16;16;
73233;PMS5003;62293;-26.174;27.908;2022-07-23T00:10:25;19;17;
73233;PMS5003;62293;-26.174;27.908;2022-07-23T00:12:51;16;16;
73233;PMS5003;62293;-26.174;27.908;2022-07-23T00:15:16;18;18;
73233;PMS5003;62293;-26.174;27.908;2022-07-23T00:17:42;21;21;
73233;PMS5003;62293;-26.174;27.908;2022-07-23T00:20:08;26;25;
73233;PMS5003;62293;-26.174;27.908;2022-07-23T00:22:33;25;21;
73233;PMS5003;62293;-26.174;27.908;2022-07-23T00:24:58;21;21;
73233;PMS5003;62293;-26.174;27.908;2022-07-23T00:27:24;22;22;
73233;PMS5003;62293;-26.174;27.908;2022-07-23T00:29:49;26;24;
73233;PMS5003;62293;-26.174;27.908;2022-07-23T00:32:15;23;22;
73233;PMS5003;62293;-26.174;27.908;2022-07-23T00:34:40;25;25;
73233;PMS5003;62293;-26.174;27.908;2022-07-23T00:37:06;24;22;
73233;PMS5003;62293;-26.174;27.908;2022-07-23T00:39:32;29;29;
73233;PMS5003;62293;-26.174;27.908;2022-07-23T00:41:57;28;27;
73233;PMS5003;62293;-26.174;27.908;2022-07-23T00:44:23;30;30;
73233;PMS5003;62293;-26.174;27.908;2022-07-23T00:46:49;29;28;
73233;PMS5003;62293;-26.174;27.908;2022-07-23T00:49:15;26;26;
73233;PMS5003;62293;-26.174;27.908;2022-07-23T00:51:40;30;28;
73233;PMS5003;62293;-26.174;27.908;2022-07-23T00:54:06;27;27;
73233;PMS5003;62293;-26.174;27.908;2022-07-23T00:56:32;32;29;
73233;PMS5003;62293;-26.174;27.908;2022-07-23T00:58:57;31;30;
73233;PMS5003;62293;-26.174;27.908;2022-07-23T01:01:23;35;34;
73233;PMS5003;62293;-26.174;27.908;2022-07-23T01:03:48;34;34;
73233;PMS5003;62293;-26.174;27.908;2022-07-23T01:06:14;29;29;
73233;PMS5003;62293;-26.174;27.908;2022-07-23T01:08:38;36;32;
73233;PMS5003;62293;-26.174;27.908;2022-07-23T01:11:03;31;31;
73233;PMS5003;62293;-26.174;27.908;2022-07-23T01:13:29;35;35;
73233;PMS5003;62293;-26.174;27.908;2022-07-23T01:15:54;32;32;
73233;PMS5003;62293;-26.174;27.908;2022-07-23T01:18:19;34;32;
73233;PMS5003;62293;-26.174;27.908;2022-07-23T01:20:45;35;34;
73233;PMS5003;62293;-26.174;27.908;2022-07-23T01:23:10;36;35;
73233;PMS5003;62293;-26.174;27.908;2022-07-23T01:25:35;35;35;
73233;PMS5003;62293;-26.174;27.908;2022-07-23T01:28:00;31;31;
73233;PMS5003;62293;-26.174;27.908;2022-07-23T01:30:26;34;33;
73233;PMS5003;62293;-26.174;27.908;2022-07-23T01:32:52;31;30;
73233;PMS5003;62293;-26.174;27.908;2022-07-23T01:35:17;34;32;
73233;PMS5003;62293;-26.174;27.908;2022-07-23T01:37:42;35;34;
73233;PMS5003;62293;-26.174;27.908;2022-07-23T01:40:08;35;34;
73233;PMS5003;62293;-26.174;27.908;2022-07-23T01:42:34;33;32;
73233;PMS5003;62293;-26.174;27.908;2022-07-23T01:44:59;32;31;
73233;PMS5003;62293;-26.174;27.908;2022-07-23T01:47:24;31;31;
73233;PMS5003;62293;-26.174;27.908;2022-07-23T01:49:49;28;28;
73233;PMS5003;62293;-26.174;27.908;2022-07-23T01:52:15;29;29;
73233;PMS5003;62293;-26.174;27.908;2022-07-23T01:54:41;25;25;
73233;PMS5003;62293;-26.174;27.908;2022-07-23T01:57:06;31;30;
73233;PMS5003;62293;-26.174;27.908;2022-07-23T01:59:33;29;28;
73233;PMS5003;62293;-26.174;27.908;2022-07-23T02:01:57;28;28;
73233;PMS5003;62293;-26.174;27.908;2022-07-23T02:04:23;25;24;
73233;PMS5003;62293;-26.174;27.908;2022-07-23T02:06:48;30;30;
73233;PMS5003;62293;-26.174;27.908;2022-07-23T02:09:14;29;27;
73233;PMS5003;62293;-26.174;27.908;2022-07-23T02:11:38;22;22;
73233;PMS5003;62293;-26.174;27.908;2022-07-23T02:14:04;25;24;
73233;PMS5003;62293;-26.174;27.908;2022-07-23T02:16:30;29;28;
73233;PMS5003;62293;-26.174;27.908;2022-07-23T02:18:55;28;28;
73233;PMS5003;62293;-26.174;27.908;2022-07-23T02:21:21;24;24;
73233;PMS5003;62293;-26.174;27.908;2022-07-23T02:23:46;25;22;
73233;PMS5003;62293;-26.174;27.908;2022-07-23T02:26:12;26;25;
73233;PMS5003;62293;-26.174;27.908;2022-07-23T02:28:37;21;21;
73233;PMS5003;62293;-26.174;27.908;2022-07-23T02:31:03;25;24;
73233;PMS5003;62293;-26.174;27.908;2022-07-23T02:33:29;30;28;
73233;PMS5003;62293;-26.174;27.908;2022-07-23T02:35:54;19;19;
73233;PMS5003;62293;-26.174;27.908;2022-07-23T02:38:19;23;23;
73233;PMS5003;62293;-26.174;27.908;2022-07-23T02:40:45;22;22;
73233;PMS5003;62293;-26.174;27.908;2022-07-23T02:43:10;24;23;
73233;PMS5003;62293;-26.174;27.908;2022-07-23T02:45:35;24;24;
73233;PMS5003;62293;-26.174;27.908;2022-07-23T02:48:01;22;22;
73233;PMS5003;62293;-26.174;27.908;2022-07-23T02:50:26;22;22;
73233;PMS5003;62293;-26.174;27.908;2022-07-23T02:52:52;19;19;
73233;PMS5003;62293;-26.174;27.908;2022-07-23T02:55:17;22;20;
73233;PMS5003;62293;-26.174;27.908;2022-07-23T02:57:43;23;21;
73233;PMS5003;62293;-26.174;27.908;2022-07-23T03:00:09;24;24;
73233;PMS5003;62293;-26.174;27.908;2022-07-23T03:02:34;24;23;
73233;PMS5003;62293;-26.174;27.908;2022-07-23T03:04:59;22;21;
73233;PMS5003;62293;-26.174;27.908;2022-07-23T03:07:24;25;23;
73233;PMS5003;62293;-26.174;27.908;2022-07-23T03:09:49;23;23;
73233;PMS5003;62293;-26.174;27.908;2022-07-23T03:12:16;21;21;
73233;PMS5003;62293;-26.174;27.908;2022-07-23T03:14:41;22;22;
73233;PMS5003;62293;-26.174;27.908;2022-07-23T03:17:06;22;20;
73233;PMS5003;62293;-26.174;27.908;2022-07-23T03:19:32;24;22;
73233;PMS5003;62293;-26.174;27.908;2022-07-23T03:21:57;23;23;
73233;PMS5003;62293;-26.174;27.908;2022-07-23T03:24:23;21;21;
73233;PMS5003;62293;-26.174;27.908;2022-07-23T03:26:49;22;19;
73233;PMS5003;62293;-26.174;27.908;2022-07-23T03:29:14;18;18;
73233;PMS5003;62293;-26.174;27.908;2022-07-23T03:31:39;19;19;
73233;PMS5003;62293;-26.174;27.908;2022-07-23T03:34:04;20;19;
73233;PMS5003;62293;-26.174;27.908;2022-07-23T03:36:30;21;20;
73233;PMS5003;62293;-26.174;27.908;2022-07-23T03:38:55;16;15;
73233;PMS5003;62293;-26.174;27.908;2022-07-23T03:41:21;19;19;
73233;PMS5003;62293;-26.174;27.908;2022-07-23T03:43:46;20;19;
73233;PMS5003;62293;-26.174;27.908;2022-07-23T03:46:11;19;18;
73233;PMS5003;62293;-26.174;27.908;2022-07-23T03:48:37;19;19;
73233;PMS5003;62293;-26.174;27.908;2022-07-23T03:51:02;21;21;
73233;PMS5003;62293;-26.174;27.908;2022-07-23T03:53:28;20;19;
73233;PMS5003;62293;-26.174;27.908;2022-07-23T03:55:54;24;23;
73233;PMS5003;62293;-26.174;27.908;2022-07-23T03:58:19;14;14;
73233;PMS5003;62293;-26.174;27.908;2022-07-23T04:00:45;17;17;
73233;PMS5003;62293;-26.174;27.908;2022-07-23T04:03:10;14;14;
73233;PMS5003;62293;-26.174;27.908;2022-07-23T04:05:35;15;14;
73233;PMS5003;62293;-26.174;27.908;2022-07-23T04:08:01;16;15;
73233;PMS5003;62293;-26.174;27.908;2022-07-23T04:10:26;17;16;
73233;PMS5003;62293;-26.174;27.908;2022-07-23T04:12:52;16;16;
73233;PMS5003;62293;-26.174;27.908;2022-07-23T04:15:17;15;15;
73233;PMS5003;62293;-26.174;27.908;2022-07-23T04:17:43;19;19;
73233;PMS5003;62293;-26.174;27.908;2022-07-23T04:20:09;15;15;
73233;PMS5003;62293;-26.174;27.908;2022-07-23T04:22:33;17;16;
73233;PMS5003;62293;-26.174;27.908;2022-07-23T04:24:58;17;17;
73233;PMS5003;62293;-26.174;27.908;2022-07-23T04:27:24;20;19;
73233;PMS5003;62293;-26.174;27.908;2022-07-23T04:29:49;16;16;
73233;PMS5003;62293;-26.174;27.908;2022-07-23T04:32:15;17;15;
73233;PMS5003;62293;-26.174;27.908;2022-07-23T04:34:40;20;16;
73233;PMS5003;62293;-26.174;27.908;2022-07-23T04:37:05;19;18;
73233;PMS5003;62293;-26.174;27.908;2022-07-23T04:39:30;13;13;
73233;PMS5003;62293;-26.174;27.908;2022-07-23T04:41:55;17;16;
73233;PMS5003;62293;-26.174;27.908;2022-07-23T04:44:21;16;15;
73233;PMS5003;62293;-26.174;27.908;2022-07-23T04:46:47;19;18;
73233;PMS5003;62293;-26.174;27.908;2022-07-23T04:49:12;15;14;
73233;PMS5003;62293;-26.174;27.908;2022-07-23T04:51:37;14;14;
73233;PMS5003;62293;-26.174;27.908;2022-07-23T04:54:02;17;16;
73233;PMS5003;62293;-26.174;27.908;2022-07-23T04:56:28;17;16;
73233;PMS5003;62293;-26.174;27.908;2022-07-23T04:58:53;16;16;
73233;PMS5003;62293;-26.174;27.908;2022-07-23T05:01:19;15;15;
73233;PMS5003;62293;-26.174;27.908;2022-07-23T05:03:44;14;14;
73233;PMS5003;62293;-26.174;27.908;2022-07-23T05:06:10;16;16;
73233;PMS5003;62293;-26.174;27.908;2022-07-23T05:08:35;15;14;
73233;PMS5003;62293;-26.174;27.908;2022-07-23T05:11:00;14;14;
73233;PMS5003;62293;-26.174;27.908;2022-07-23T05:13:26;19;18;
73233;PMS5003;62293;-26.174;27.908;2022-07-23T05:15:51;14;14;
73233;PMS5003;62293;-26.174;27.908;2022-07-23T05:18:17;14;13;
73233;PMS5003;62293;-26.174;27.908;2022-07-23T05:20:42;18;17;
73233;PMS5003;62293;-26.174;27.908;2022-07-23T05:23:07;12;12;
73233;PMS5003;62293;-26.174;27.908;2022-07-23T05:25:32;15;15;
73233;PMS5003;62293;-26.174;27.908;2022-07-23T05:27:58;17;16;
73233;PMS5003;62293;-26.174;27.908;2022-07-23T05:30:24;16;16;
73233;PMS5003;62293;-26.174;27.908;2022-07-23T05:32:49;13;13;
73233;PMS5003;62293;-26.174;27.908;2022-07-23T05:35:14;14;14;
73233;PMS5003;62293;-26.174;27.908;2022-07-23T05:37:39;15;15;
73233;PMS5003;62293;-26.174;27.908;2022-07-23T05:40:05;15;15;
73233;PMS5003;62293;-26.174;27.908;2022-07-23T05:42:29;17;16;
73233;PMS5003;62293;-26.174;27.908;2022-07-23T05:44:55;16;16;
73233;PMS5003;62293;-26.174;27.908;2022-07-23T05:47:20;16;16;
73233;PMS5003;62293;-26.174;27.908;2022-07-23T05:49:45;14;13;
73233;PMS5003;62293;-26.174;27.908;2022-07-23T05:52:10;14;14;
73233;PMS5003;62293;-26.174;27.908;2022-07-23T05:54:36;18;16;
73233;PMS5003;62293;-26.174;27.908;2022-07-23T05:57:02;18;18;
73233;PMS5003;62293;-26.174;27.908;2022-07-23T05:59:27;14;13;
73233;PMS5003;62293;-26.174;27.908;2022-07-23T06:01:52;14;14;
73233;PMS5003;62293;-26.174;27.908;2022-07-23T06:04:18;14;13;
73233;PMS5003;62293;-26.174;27.908;2022-07-23T06:06:43;16;15;
73233;PMS5003;62293;-26.174;27.908;2022-07-23T06:09:08;17;17;
73233;PMS5003;62293;-26.174;27.908;2022-07-23T06:11:33;17;16;
73233;PMS5003;62293;-26.174;27.908;2022-07-23T06:13:59;14;13;
73233;PMS5003;62293;-26.174;27.908;2022-07-23T06:16:24;15;14;
73233;PMS5003;62293;-26.174;27.908;2022-07-23T06:18:49;14;14;
73233;PMS5003;62293;-26.174;27.908;2022-07-23T06:21:15;12;11;
73233;PMS5003;62293;-26.174;27.908;2022-07-23T06:23:40;13;13;
73233;PMS5003;62293;-26.174;27.908;2022-07-23T06:26:05;15;15;
73233;PMS5003;62293;-26.174;27.908;2022-07-23T06:28:31;12;11;
73233;PMS5003;62293;-26.174;27.908;2022-07-23T06:30:56;14;13;
73233;PMS5003;62293;-26.174;27.908;2022-07-23T06:33:21;11;11;
73233;PMS5003;62293;-26.174;27.908;2022-07-23T06:35:46;12;12;
73233;PMS5003;62293;-26.174;27.908;2022-07-23T06:38:12;12;12;
73233;PMS5003;62293;-26.174;27.908;2022-07-23T06:40:37;15;15;
73233;PMS5003;62293;-26.174;27.908;2022-07-23T06:43:03;14;12;
73233;PMS5003;62293;-26.174;27.908;2022-07-23T06:45:28;11;11;
73233;PMS5003;62293;-26.174;27.908;2022-07-23T06:47:53;11;10;
73233;PMS5003;62293;-26.174;27.908;2022-07-23T06:50:19;12;10;
73233;PMS5003;62293;-26.174;27.908;2022-07-23T06:52:44;10;10;
73233;PMS5003;62293;-26.174;27.908;2022-07-23T06:55:10;12;12;
73233;PMS5003;62293;-26.174;27.908;2022-07-23T06:57:35;11;10;
73233;PMS5003;62293;-26.174;27.908;2022-07-23T07:00:00;10;10;
73233;PMS5003;62293;-26.174;27.908;2022-07-23T07:02:25;11;11;
73233;PMS5003;62293;-26.174;27.908;2022-07-23T07:04:51;12;11;
73233;PMS5003;62293;-26.174;27.908;2022-07-23T07:07:16;10;10;
73233;PMS5003;62293;-26.174;27.908;2022-07-23T07:09:41;10;10;
73233;PMS5003;62293;-26.174;27.908;2022-07-23T07:12:07;11;10;
73233;PMS5003;62293;-26.174;27.908;2022-07-23T07:14:32;9;9;
73233;PMS5003;62293;-26.174;27.908;2022-07-23T07:16:57;11;10;
73233;PMS5003;62293;-26.174;27.908;2022-07-23T07:19:22;10;9;
73233;PMS5003;62293;-26.174;27.908;2022-07-23T07:21:47;9;8;
73233;PMS5003;62293;-26.174;27.908;2022-07-23T07:24:13;10;9;
73233;PMS5003;62293;-26.174;27.908;2022-07-23T07:26:38;13;12;
73233;PMS5003;62293;-26.174;27.908;2022-07-23T07:29:03;12;12;
73233;PMS5003;62293;-26.174;27.908;2022-07-23T07:31:28;10;10;
73233;PMS5003;62293;-26.174;27.908;2022-07-23T07:33:54;11;11;
73233;PMS5003;62293;-26.174;27.908;2022-07-23T07:36:19;12;12;
73233;PMS5003;62293;-26.174;27.908;2022-07-23T07:38:45;18;16;
73233;PMS5003;62293;-26.174;27.908;2022-07-23T07:41:10;10;10;
73233;PMS5003;62293;-26.174;27.908;2022-07-23T07:43:36;13;11;
73233;PMS5003;62293;-26.174;27.908;2022-07-23T07:46:02;12;12;
73233;PMS5003;62293;-26.174;27.908;2022-07-23T07:48:27;12;11;
73233;PMS5003;62293;-26.174;27.908;2022-07-23T07:50:52;13;13;
73233;PMS5003;62293;-26.174;27.908;2022-07-23T07:53:18;12;12;
73233;PMS5003;62293;-26.174;27.908;2022-07-23T07:55:43;13;12;
73233;PMS5003;62293;-26.174;27.908;2022-07-23T07:58:09;15;13;
73233;PMS5003;62293;-26.174;27.908;2022-07-23T08:00:34;14;14;
73233;PMS5003;62293;-26.174;27.908;2022-07-23T08:02:59;14;14;
73233;PMS5003;62293;-26.174;27.908;2022-07-23T08:05:25;12;12;
73233;PMS5003;62293;-26.174;27.908;2022-07-23T08:07:50;12;12;
73233;PMS5003;62293;-26.174;27.908;2022-07-23T08:10:15;14;14;
73233;PMS5003;62293;-26.174;27.908;2022-07-23T08:12:41;11;11;
73233;PMS5003;62293;-26.174;27.908;2022-07-23T08:15:06;12;12;
73233;PMS5003;62293;-26.174;27.908;2022-07-23T08:17:31;12;11;
73233;PMS5003;62293;-26.174;27.908;2022-07-23T08:19:56;10;10;
73233;PMS5003;62293;-26.174;27.908;2022-07-23T08:22:22;8;8;
73233;PMS5003;62293;-26.174;27.908;2022-07-23T08:24:47;12;9;
73233;PMS5003;62293;-26.174;27.908;2022-07-23T08:27:12;7;7;
73233;PMS5003;62293;-26.174;27.908;2022-07-23T08:29:37;10;9;
73233;PMS5003;62293;-26.174;27.908;2022-07-23T08:32:03;9;8;
73233;PMS5003;62293;-26.174;27.908;2022-07-23T08:34:28;10;9;
73233;PMS5003;62293;-26.174;27.908;2022-07-23T08:36:53;9;9;
73233;PMS5003;62293;-26.174;27.908;2022-07-23T08:39:19;7;7;
73233;PMS5003;62293;-26.174;27.908;2022-07-23T08:41:44;7;7;
73233;PMS5003;62293;-26.174;27.908;2022-07-23T08:44:09;10;9;
73233;PMS5003;62293;-26.174;27.908;2022-07-23T08:46:35;11;10;
73233;PMS5003;62293;-26.174;27.908;2022-07-23T08:49:00;10;9;
73233;PMS5003;62293;-26.174;27.908;2022-07-23T08:51:25;9;9;
73233;PMS5003;62293;-26.174;27.908;2022-07-23T08:53:51;10;10;
73233;PMS5003;62293;-26.174;27.908;2022-07-23T08:56:16;26;24;
73233;PMS5003;62293;-26.174;27.908;2022-07-23T08:58:42;40;39;
73233;PMS5003;62293;-26.174;27.908;2022-07-23T09:01:08;40;37;
73233;PMS5003;62293;-26.174;27.908;2022-07-23T09:03:33;42;38;
73233;PMS5003;62293;-26.174;27.908;2022-07-23T09:05:58;36;35;
73233;PMS5003;62293;-26.174;27.908;2022-07-23T09:08:24;28;27;
73233;PMS5003;62293;-26.174;27.908;2022-07-23T09:10:53;26;25;
73233;PMS5003;62293;-26.174;27.908;2022-07-23T09:13:24;19;19;
73233;PMS5003;62293;-26.174;27.908;2022-07-23T09:18:06;17;17;
73233;PMS5003;62293;-26.174;27.908;2022-07-23T09:20:31;13;12;
73233;PMS5003;62293;-26.174;27.908;2022-07-23T09:22:57;14;12;
73233;PMS5003;62293;-26.174;27.908;2022-07-23T09:25:22;11;11;
73233;PMS5003;62293;-26.174;27.908;2022-07-23T09:27:50;15;13;
73233;PMS5003;62293;-26.174;27.908;2022-07-23T09:30:16;13;12;
73233;PMS5003;62293;-26.174;27.908;2022-07-23T09:32:40;12;11;
73233;PMS5003;62293;-26.174;27.908;2022-07-23T09:35:05;14;14;
73233;PMS5003;62293;-26.174;27.908;2022-07-23T09:37:30;14;13;
73233;PMS5003;62293;-26.174;27.908;2022-07-23T09:40:02;13;13;
73233;PMS5003;62293;-26.174;27.908;2022-07-23T09:42:21;15;14;
73233;PMS5003;62293;-26.174;27.908;2022-07-23T09:44:46;13;13;
73233;PMS5003;62293;-26.174;27.908;2022-07-23T09:47:10;12;12;
73233;PMS5003;62293;-26.174;27.908;2022-07-23T09:49:36;15;14;
73233;PMS5003;62293;-26.174;27.908;2022-07-23T09:52:01;11;11;
73233;PMS5003;62293;-26.174;27.908;2022-07-23T09:54:29;12;11;
73233;PMS5003;62293;-26.174;27.908;2022-07-23T09:56:52;13;12;
73233;PMS5003;62293;-26.174;27.908;2022-07-23T09:59:17;13;13;
73233;PMS5003;62293;-26.174;27.908;2022-07-23T10:01:42;14;13;
73233;PMS5003;62293;-26.174;27.908;2022-07-23T10:04:08;12;11;
73233;PMS5003;62293;-26.174;27.908;2022-07-23T10:06:33;11;10;
73233;PMS5003;62293;-26.174;27.908;2022-07-23T10:08:58;13;13;
73233;PMS5003;62293;-26.174;27.908;2022-07-23T10:11:24;13;13;
73233;PMS5003;62293;-26.174;27.908;2022-07-23T10:13:49;12;11;
73233;PMS5003;62293;-26.174;27.908;2022-07-23T10:16:15;15;15;
73233;PMS5003;62293;-26.174;27.908;2022-07-23T10:18:40;14;14;
73233;PMS5003;62293;-26.174;27.908;2022-07-23T10:21:05;13;13;
73233;PMS5003;62293;-26.174;27.908;2022-07-23T10:23:32;11;10;
73233;PMS5003;62293;-26.174;27.908;2022-07-23T10:25:58;15;14;
73233;PMS5003;62293;-26.174;27.908;2022-07-23T10:28:32;13;13;
73233;PMS5003;62293;-26.174;27.908;2022-07-23T10:30:49;11;11;
73233;PMS5003;62293;-26.174;27.908;2022-07-23T10:33:17;11;11;
73233;PMS5003;62293;-26.174;27.908;2022-07-23T10:35:39;11;10;
73233;PMS5003;62293;-26.174;27.908;2022-07-23T10:38:11;10;10;
73233;PMS5003;62293;-26.174;27.908;2022-07-23T10:40:28;11;11;
73233;PMS5003;62293;-26.174;27.908;2022-07-23T10:42:53;13;10;
73233;PMS5003;62293;-26.174;27.908;2022-07-23T10:45:24;10;10;
73233;PMS5003;62293;-26.174;27.908;2022-07-23T10:47:43;12;10;
73233;PMS5003;62293;-26.174;27.908;2022-07-23T10:52:34;12;11;
73233;PMS5003;62293;-26.174;27.908;2022-07-23T10:57:24;11;10;
73233;PMS5003;62293;-26.174;27.908;2022-07-23T11:02:20;10;9;
73233;PMS5003;62293;-26.174;27.908;2022-07-23T11:07:08;12;11;
73233;PMS5003;62293;-26.174;27.908;2022-07-23T11:09:38;11;11;
73233;PMS5003;62293;-26.174;27.908;2022-07-23T11:16:47;10;10;
73233;PMS5003;62293;-26.174;27.908;2022-07-23T11:19:11;13;13;
73233;PMS5003;62293;-26.174;27.908;2022-07-23T11:24:03;11;11;
73233;PMS5003;62293;-26.174;27.908;2022-07-23T11:28:53;13;12;
73233;PMS5003;62293;-26.174;27.908;2022-07-23T11:31:17;9;8;
73233;PMS5003;62293;-26.174;27.908;2022-07-23T11:33:42;10;10;
73233;PMS5003;62293;-26.174;27.908;2022-07-23T11:36:08;15;14;
73233;PMS5003;62293;-26.174;27.908;2022-07-23T11:38:33;17;15;
73233;PMS5003;62293;-26.174;27.908;2022-07-23T11:40:58;15;13;
73233;PMS5003;62293;-26.174;27.908;2022-07-23T11:43:23;14;13;
73233;PMS5003;62293;-26.174;27.908;2022-07-23T11:45:50;15;14;
73233;PMS5003;62293;-26.174;27.908;2022-07-23T11:48:18;14;14;
73233;PMS5003;62293;-26.174;27.908;2022-07-23T11:50:39;13;12;
73233;PMS5003;62293;-26.174;27.908;2022-07-23T11:53:04;14;13;
73233;PMS5003;62293;-26.174;27.908;2022-07-23T11:55:29;15;15;
73233;PMS5003;62293;-26.174;27.908;2022-07-23T11:57:55;12;11;
73233;PMS5003;62293;-26.174;27.908;2022-07-23T12:00:20;13;13;
73233;PMS5003;62293;-26.174;27.908;2022-07-23T12:02:45;12;11;
